Time;durP1;ratioP1;P1;durP2;ratioP2;P2;SDS_P1;SDS_P2;PMS_P1;PMS_P2;Temp;Humidity;BMP_temperature;BMP_pressure;BME280_temperature;BME280_humidity;BME280_pressure;Samples;Min_cycle;Max_cycle;Signal;HPM_P1;HPM_P2
2022/01/24 00:01:33;;;;;;;27.45;20.17;;;;;;;2.16;63.39;102855.59;5032544;28;20045;-57
2022/01/24 00:04:02;;;;;;;26.65;20.42;;;;;;;2.11;63.64;102857.28;5035258;28;20045;-57
2022/01/24 00:06:31;;;;;;;27.17;20.13;;;;;;;2.20;63.27;102862.56;5034740;28;20088;-57
2022/01/24 00:08:59;;;;;;;26.38;19.42;;;;;;;2.22;62.91;102859.97;5034921;28;20383;-57
2022/01/24 00:11:37;;;;;;;24.70;19.90;;;;;;;2.21;62.77;102863.41;5034718;28;20053;-57
2022/01/24 00:27:12;;;;;;;27.73;20.95;;;;;;;2.15;62.59;102871.13;5033465;28;20041;-57
2022/01/24 00:29:39;;;;;;;27.63;21.27;;;;;;;2.06;62.67;102870.16;5034384;28;20053;-57
2022/01/24 00:32:06;;;;;;;27.38;20.70;;;;;;;2.09;62.99;102866.72;5033262;28;20482;-58
2022/01/24 00:34:33;;;;;;;30.25;20.88;;;;;;;2.08;62.66;102864.97;5034635;28;20049;-57
2022/01/24 00:37:00;;;;;;;29.73;21.33;;;;;;;1.99;62.60;102851.91;5034552;28;20041;-57
2022/01/24 00:39:27;;;;;;;30.23;21.25;;;;;;;1.99;62.80;102846.75;5033584;28;20050;-57
2022/01/24 00:42:17;;;;;;;34.00;23.50;;;;;;;1.96;62.44;102850.16;5033369;28;20042;-57
2022/01/24 00:44:50;;;;;;;36.10;24.55;;;;;;;2.05;62.52;102852.88;5033512;28;20052;-57
2022/01/24 00:47:28;;;;;;;37.30;23.60;;;;;;;1.93;62.97;102837.16;5034028;28;20398;-57
2022/01/24 00:53:10;;;;;;;31.92;22.30;;;;;;;2.03;62.41;102838.16;5033050;28;20045;-57
2022/01/24 00:55:27;;;;;;;33.00;22.20;;;;;;;2.01;62.50;102830.38;5034062;28;20065;-57
2022/01/24 00:57:54;;;;;;;35.75;24.15;;;;;;;2.01;62.36;102830.38;5033760;28;20041;-57
2022/01/24 01:00:21;;;;;;;35.83;23.73;;;;;;;1.99;62.47;102834.66;5034021;28;20060;-57
2022/01/24 01:02:47;;;;;;;32.50;22.08;;;;;;;1.96;62.47;102834.63;5033653;28;20042;-57
2022/01/24 01:05:33;;;;;;;33.65;22.38;;;;;;;1.99;62.12;102834.66;5033975;28;20132;-57
2022/01/24 01:18:07;;;;;;;30.80;21.30;;;;;;;2.00;62.28;102841.56;5030663;28;20049;-57
2022/01/24 01:19:05;;;;;;;29.33;21.70;;;;;;;1.95;62.36;102835.47;5033580;28;20099;-57
2022/01/24 01:21:33;;;;;;;32.28;23.05;;;;;;;1.92;62.29;102832.84;5033482;28;20490;-57
2022/01/24 01:24:00;;;;;;;32.17;22.30;;;;;;;1.93;62.54;102835.47;5032978;28;20046;-57
2022/01/24 01:29:12;;;;;;;34.20;22.55;;;;;;;1.94;61.96;102824.25;5033319;28;20107;-57
2022/01/24 01:32:04;;;;;;;30.40;21.83;;;;;;;1.94;62.22;102828.53;5033169;28;20046;-57
2022/01/24 01:38:22;;;;;;;33.10;23.35;;;;;;;1.92;62.04;102827.69;5042279;28;20045;-58
2022/01/24 01:56:41;;;;;;;38.85;26.10;;;;;;;1.87;62.35;102809.47;5031824;28;20044;-57
2022/01/24 01:59:08;;;;;;;40.20;26.90;;;;;;;1.88;62.36;102811.22;5032922;28;20057;-57
2022/01/24 02:01:34;;;;;;;46.80;27.30;;;;;;;1.87;62.22;102804.31;5032701;28;20520;-57
2022/01/24 02:04:03;;;;;;;41.22;27.08;;;;;;;1.85;62.23;102806.00;5032947;28;20084;-57
2022/01/24 02:06:31;;;;;;;42.45;26.85;;;;;;;1.84;62.32;102801.69;5032546;28;20041;-58
2022/01/24 02:09:04;;;;;;;41.33;25.95;;;;;;;1.84;62.40;102799.09;5031641;28;20045;-57
2022/01/24 02:11:31;;;;;;;36.97;24.65;;;;;;;1.86;62.39;102797.38;5032176;28;20050;-58
2022/01/24 02:14:03;;;;;;;36.85;24.48;;;;;;;1.84;62.47;102790.44;5032522;28;20049;-57
2022/01/24 02:19:24;;;;;;;39.72;25.90;;;;;;;1.78;62.55;102789.50;5032407;28;20072;-57
2022/01/24 02:24:32;;;;;;;41.80;26.13;;;;;;;1.78;62.35;102783.47;5031819;28;20053;-57
2022/01/24 02:27:00;;;;;;;42.00;26.67;;;;;;;1.74;62.32;102777.41;5018728;28;20452;-57
2022/01/24 02:31:55;;;;;;;37.83;26.55;;;;;;;1.74;62.29;102781.69;5032156;28;20088;-57
2022/01/24 02:34:22;;;;;;;43.33;26.45;;;;;;;1.75;62.41;102783.44;5032496;28;20103;-57
2022/01/24 02:36:50;;;;;;;43.03;25.58;;;;;;;1.71;62.43;102789.41;5032306;28;20461;-57
2022/01/24 02:50:08;;;;;;;41.50;25.98;;;;;;;1.67;62.50;102783.31;5031527;28;20413;-57
2022/01/24 02:52:35;;;;;;;46.03;27.35;;;;;;;1.68;62.54;102790.25;5032196;28;20061;-57
2022/01/24 02:55:03;;;;;;;46.53;26.27;;;;;;;1.67;62.42;102775.56;5032163;28;20055;-57
2022/01/24 02:57:30;;;;;;;44.88;27.08;;;;;;;1.66;62.47;102779.00;5031779;28;20099;-57
2022/01/24 02:59:56;;;;;;;43.22;27.00;;;;;;;1.65;62.49;102771.22;5030916;28;20076;-57
2022/01/24 03:02:23;;;;;;;44.13;27.30;;;;;;;1.63;62.42;102771.19;5032100;28;20099;-57
2022/01/24 03:04:50;;;;;;;44.80;27.65;;;;;;;1.59;62.54;102770.28;5031909;28;20096;-57
2022/01/24 03:07:17;;;;;;;47.03;27.33;;;;;;;1.60;62.68;102772.03;5031991;28;20045;-58
2022/01/24 03:09:45;;;;;;;46.47;27.83;;;;;;;1.65;62.67;102768.63;5031888;28;20037;-57
2022/01/24 03:12:14;;;;;;;45.97;27.75;;;;;;;1.61;62.87;102766.00;5031863;28;20053;-57
2022/01/24 03:14:41;;;;;;;48.08;28.05;;;;;;;1.61;62.74;102765.13;5030589;28;20046;-57
2022/01/24 03:17:07;;;;;;;47.63;27.55;;;;;;;1.60;62.38;102763.38;5031815;28;20051;-58
2022/01/24 03:19:34;;;;;;;48.85;28.08;;;;;;;1.57;62.69;102763.34;5030668;28;20406;-57
2022/01/24 03:22:02;;;;;;;44.15;27.98;;;;;;;1.53;62.58;102759.84;5031841;28;20505;-57
2022/01/24 03:24:28;;;;;;;43.75;27.65;;;;;;;1.54;62.66;102765.91;5031899;28;20041;-57
2022/01/24 03:26:55;;;;;;;41.08;26.88;;;;;;;1.51;62.50;102766.75;5031570;28;20410;-57
2022/01/24 03:29:22;;;;;;;45.42;27.20;;;;;;;1.50;62.72;102766.69;5031980;28;20053;-57
2022/01/24 03:31:49;;;;;;;42.85;25.88;;;;;;;1.49;62.81;102757.22;5031564;28;20062;-57
2022/01/24 03:34:15;;;;;;;40.15;25.50;;;;;;;1.50;62.85;102759.81;5031857;28;20445;-57
2022/01/24 03:36:43;;;;;;;40.42;25.35;;;;;;;1.44;62.91;102755.41;5030743;28;20049;-57
2022/01/24 03:39:11;;;;;;;40.55;25.77;;;;;;;1.43;62.96;102753.66;5031793;28;20417;-57
2022/01/24 03:41:39;;;;;;;41.45;26.42;;;;;;;1.39;63.14;102744.13;5031310;28;20049;-57
2022/01/24 03:44:11;;;;;;;39.72;25.25;;;;;;;1.40;63.10;102748.47;5031762;28;20076;-57
2022/01/24 03:47:00;;;;;;;38.85;25.50;;;;;;;1.40;63.18;102742.44;5031398;28;20461;-57
2022/01/24 03:49:48;;;;;;;36.15;23.92;;;;;;;1.37;63.19;102738.09;5031446;28;20111;-57
2022/01/24 03:52:17;;;;;;;39.28;24.45;;;;;;;1.32;63.34;102737.16;5030858;28;20129;-57
2022/01/24 03:54:44;;;;;;;39.47;24.55;;;;;;;1.37;63.31;102748.44;5031631;28;20042;-58
2022/01/24 03:57:13;;;;;;;40.13;24.90;;;;;;;1.37;63.38;102735.50;5031478;28;20504;-57
2022/01/24 03:59:40;;;;;;;38.50;23.50;;;;;;;1.40;63.31;102737.25;5031383;28;20038;-57
2022/01/24 04:02:08;;;;;;;39.50;24.73;;;;;;;1.39;63.43;102735.50;5033857;28;20068;-58
2022/01/24 04:04:35;;;;;;;40.20;23.95;;;;;;;1.39;63.35;102740.69;5031035;28;20498;-57
2022/01/24 04:07:02;;;;;;;37.22;24.27;;;;;;;1.36;63.24;102744.09;5031116;28;20406;-59
2022/01/24 04:09:29;;;;;;;40.53;25.75;;;;;;;1.36;63.43;102746.69;5031826;28;20049;-59
2022/01/24 04:11:58;;;;;;;41.78;25.60;;;;;;;1.34;63.62;102744.94;5030239;28;20107;-59
2022/01/24 04:22:12;;;;;;;45.47;25.77;;;;;;;1.30;63.91;102741.44;5031641;28;20453;-59
2022/01/24 04:24:39;;;;;;;44.60;26.02;;;;;;;1.24;63.98;102746.50;5031201;28;20516;-59
2022/01/24 04:27:07;;;;;;;49.08;28.10;;;;;;;1.26;64.10;102745.69;5030944;28;20053;-59
2022/01/24 04:29:34;;;;;;;45.85;27.33;;;;;;;1.20;64.55;102753.34;5024737;28;20061;-59
2022/01/24 04:32:01;;;;;;;47.40;27.52;;;;;;;1.25;64.54;102764.63;5031143;28;20429;-59
2022/01/24 04:34:28;;;;;;;48.10;28.60;;;;;;;1.29;64.58;102770.72;5031159;28;20510;-59
2022/01/24 04:36:55;;;;;;;49.15;27.60;;;;;;;1.32;64.49;102760.44;5031079;28;20046;-60
2022/01/24 04:39:22;;;;;;;47.28;27.80;;;;;;;1.34;64.41;102758.72;5031398;28;20088;-59
2022/01/24 04:41:53;;;;;;;54.50;30.55;;;;;;;1.35;64.51;102764.78;5030722;28;20410;-59
2022/01/24 04:47:22;;;;;;;45.70;28.70;;;;;;;1.31;65.13;102771.63;5030869;28;20453;-59
2022/01/24 04:52:46;;;;;;;55.27;30.20;;;;;;;1.25;65.65;102772.38;5030797;28;20080;-59
2022/01/24 04:55:13;;;;;;;49.72;30.77;;;;;;;1.30;65.66;102772.47;5030986;28;20049;-59
2022/01/24 04:57:39;;;;;;;47.88;29.58;;;;;;;1.29;65.91;102769.00;5029329;28;20053;-59
2022/01/24 05:00:09;;;;;;;45.63;28.40;;;;;;;1.20;66.12;102775.75;5062687;28;20042;-59
2022/01/24 05:02:36;;;;;;;49.92;27.38;;;;;;;1.19;66.66;102772.28;5030788;28;20041;-59
2022/01/24 05:05:04;;;;;;;50.97;27.65;;;;;;;1.17;66.84;102771.41;5030789;28;20547;-59
2022/01/24 05:07:31;;;;;;;45.58;26.38;;;;;;;1.23;66.84;102773.22;5030431;28;20050;-59
2022/01/24 05:10:09;;;;;;;43.28;24.55;;;;;;;1.21;67.04;102785.25;5030212;28;20932;-60
2022/01/24 05:25:52;;;;;;;82.85;23.83;;;;;;;1.39;67.64;102806.22;5030171;28;20049;-59
2022/01/24 05:28:20;;;;;;;37.28;23.48;;;;;;;1.35;68.04;102799.25;5030188;28;20095;-59
2022/01/24 05:30:47;;;;;;;49.47;23.98;;;;;;;1.43;68.00;102805.41;5030231;28;20103;-59
2022/01/24 05:33:14;;;;;;;47.90;23.15;;;;;;;1.37;68.34;102799.28;5029119;28;20140;-59
2022/01/24 05:35:47;;;;;;;43.00;23.33;;;;;;;1.44;68.29;102804.56;5028587;28;20045;-59
2022/01/24 05:38:13;;;;;;;41.60;24.77;;;;;;;1.51;68.58;102815.91;5030299;28;20105;-59
2022/01/24 05:40:40;;;;;;;52.97;23.08;;;;;;;1.55;68.55;102816.78;5030191;28;20041;-59
2022/01/24 05:43:07;;;;;;;49.30;23.88;;;;;;;1.59;68.66;102816.00;5029916;28;20046;-59
2022/01/24 05:45:34;;;;;;;50.85;24.67;;;;;;;1.59;68.61;102803.06;5029821;28;20482;-59
2022/01/24 05:48:01;;;;;;;40.70;21.60;;;;;;;1.62;68.82;102810.88;5029778;28;20416;-60
2022/01/24 05:50:28;;;;;;;40.70;23.65;;;;;;;1.69;69.15;102814.41;5028766;28;20075;-59
2022/01/24 05:52:55;;;;;;;41.00;22.92;;;;;;;1.71;68.87;102812.72;5029678;28;20099;-59
2022/01/24 05:55:22;;;;;;;42.92;26.00;;;;;;;1.72;69.17;102817.91;5029839;28;20559;-58
2022/01/24 05:57:52;;;;;;;50.45;25.13;;;;;;;1.72;68.95;102817.91;5029559;28;20049;-58
2022/01/24 06:00:21;;;;;;;39.97;24.52;;;;;;;1.74;69.24;102816.22;5030320;28;20386;-58
2022/01/24 06:02:48;;;;;;;40.60;24.45;;;;;;;1.76;69.38;102824.00;5029461;28;20049;-59
2022/01/24 06:05:15;;;;;;;43.08;24.00;;;;;;;1.80;69.30;102830.94;5029742;28;20099;-58
2022/01/24 06:07:41;;;;;;;41.63;24.08;;;;;;;1.79;69.32;102822.31;5028217;28;23917;-61
2022/01/24 06:10:09;;;;;;;40.90;23.90;;;;;;;1.79;69.48;102832.69;5029561;28;20045;-61
2022/01/24 06:12:35;;;;;;;49.40;25.58;;;;;;;1.85;69.47;102821.53;5029155;28;20520;-62
2022/01/24 06:15:03;;;;;;;47.25;26.15;;;;;;;1.85;69.51;102831.03;5029130;28;20049;-61
2022/01/24 06:17:36;;;;;;;48.25;24.63;;;;;;;1.86;69.53;102833.63;5029223;28;20050;-61
2022/01/24 06:20:08;;;;;;;42.90;24.48;;;;;;;1.87;69.58;102835.38;5028859;28;20128;-60
2022/01/24 06:22:41;;;;;;;43.30;23.77;;;;;;;1.87;69.69;102840.53;5029260;28;20049;-61
2022/01/24 06:25:08;;;;;;;47.55;24.42;;;;;;;1.84;69.85;102835.34;5033889;28;20078;-61
2022/01/24 06:27:41;;;;;;;43.72;22.77;;;;;;;1.89;69.67;102845.75;5033834;28;20075;-61
2022/01/24 06:30:08;;;;;;;47.53;23.45;;;;;;;1.86;69.88;102851.75;5028983;28;20045;-61
2022/01/24 06:32:35;;;;;;;50.38;24.40;;;;;;;1.87;69.97;102860.41;5029274;28;20041;-61
2022/01/24 06:35:02;;;;;;;40.10;24.70;;;;;;;1.88;69.91;102864.69;5029271;28;20103;-61
2022/01/24 06:37:28;;;;;;;45.55;24.98;;;;;;;1.88;70.08;102873.34;5028874;28;20103;-61
2022/01/24 06:39:56;;;;;;;45.60;23.33;;;;;;;1.88;69.90;102873.34;5028918;28;20115;-61
2022/01/24 06:42:23;;;;;;;49.05;27.17;;;;;;;1.87;70.24;102865.56;5027718;28;20559;-60
2022/01/24 06:44:51;;;;;;;41.63;24.92;;;;;;;1.91;70.15;102873.38;5028853;28;20038;-61
2022/01/24 06:47:18;;;;;;;46.85;24.75;;;;;;;1.91;70.12;102875.13;5028719;28;20057;-61
2022/01/24 06:49:44;;;;;;;40.92;23.73;;;;;;;1.93;70.21;102870.81;5028972;28;20478;-60
2022/01/24 06:52:13;;;;;;;48.25;24.27;;;;;;;2.28;69.74;102879.03;5028746;28;20046;-61
2022/01/24 06:54:41;;;;;;;51.63;23.88;;;;;;;2.15;70.32;102879.75;5014403;28;20041;-61
2022/01/24 06:57:13;;;;;;;44.05;22.65;;;;;;;2.12;70.26;102880.59;5028545;28;20115;-61
2022/01/24 06:59:45;;;;;;;42.75;21.60;;;;;;;2.06;70.26;102887.41;5027596;28;20041;-61
2022/01/24 07:02:13;;;;;;;41.88;22.95;;;;;;;2.05;70.42;102889.13;5028472;28;20397;-61
2022/01/24 07:04:41;;;;;;;60.63;26.08;;;;;;;2.03;70.40;102898.59;5028664;28;20041;-61
2022/01/24 07:07:10;;;;;;;56.50;28.42;;;;;;;2.10;70.19;102891.78;5028523;28;20076;-61
2022/01/24 07:09:36;;;;;;;44.70;26.40;;;;;;;2.08;70.46;102906.41;5028459;28;20405;-61
2022/01/24 07:12:04;;;;;;;45.88;23.98;;;;;;;2.00;70.47;102911.50;5028476;28;20045;-61
2022/01/24 07:14:31;;;;;;;47.65;24.13;;;;;;;2.00;70.75;102906.31;5027712;28;20041;-61
2022/01/24 07:19:27;;;;;;;58.40;23.88;;;;;;;1.97;70.43;102914.06;5039849;28;20045;-61
2022/01/24 07:21:54;;;;;;;46.03;22.42;;;;;;;1.96;70.53;102920.06;5037833;28;20045;-61
2022/01/24 07:24:21;;;;;;;42.55;22.98;;;;;;;1.94;70.62;102914.88;5034081;28;20113;-61
2022/01/24 07:26:48;;;;;;;38.17;22.15;;;;;;;2.02;70.51;102920.16;5038027;28;20056;-60
2022/01/24 07:29:16;;;;;;;39.28;23.20;;;;;;;2.07;70.43;102925.38;5042636;28;20456;-60
2022/01/24 07:31:43;;;;;;;35.80;22.58;;;;;;;2.08;70.42;102925.44;5032114;28;20042;-61
2022/01/24 07:34:09;;;;;;;36.95;22.13;;;;;;;2.08;70.06;102925.44;5034214;28;20076;-61
2022/01/24 07:36:36;;;;;;;39.15;23.05;;;;;;;2.02;70.36;102938.28;5030259;28;20076;-60
2022/01/24 07:39:05;;;;;;;41.15;23.02;;;;;;;2.02;70.26;102937.41;5030785;28;20073;-61
2022/01/24 07:41:42;;;;;;;47.03;23.52;;;;;;;1.96;70.40;102933.88;5039105;28;20046;-60
2022/01/24 07:44:12;;;;;;;57.60;23.75;;;;;;;2.02;70.16;102940.00;5039811;28;20045;-61
2022/01/24 07:46:44;;;;;;;47.67;25.10;;;;;;;1.99;70.10;102930.47;5026905;28;20053;-60
2022/01/24 07:49:13;;;;;;;50.60;23.40;;;;;;;2.00;70.51;102933.94;5042533;28;20045;-60
2022/01/24 07:51:42;;;;;;;41.08;22.70;;;;;;;2.06;70.45;102940.06;5042277;28;20486;-60
2022/01/24 07:54:10;;;;;;;43.17;22.65;;;;;;;2.04;70.01;102941.75;5031596;28;20474;-61
2022/01/24 07:56:38;;;;;;;39.80;22.23;;;;;;;2.05;70.26;102946.09;5031402;28;20064;-61
2022/01/24 07:59:05;;;;;;;50.25;23.77;;;;;;;2.04;70.28;102948.66;5031231;28;20049;-60
2022/01/24 08:01:32;;;;;;;48.55;23.58;;;;;;;2.07;70.31;102954.75;5030076;28;20095;-61
2022/01/24 08:03:59;;;;;;;43.92;23.80;;;;;;;2.05;70.13;102953.84;5030837;28;20052;-61
2022/01/24 08:06:26;;;;;;;45.08;24.10;;;;;;;2.11;70.23;102946.19;5031633;28;20604;-61
2022/01/24 08:08:53;;;;;;;43.85;23.98;;;;;;;2.19;70.24;102945.44;5030731;28;20064;-61
2022/01/24 08:11:20;;;;;;;43.13;25.23;;;;;;;2.18;70.09;102943.69;5030551;28;20045;-61
2022/01/24 08:13:47;;;;;;;48.83;25.88;;;;;;;2.18;70.27;102941.94;5030835;28;20042;-61
2022/01/24 08:16:15;;;;;;;49.88;25.92;;;;;;;2.21;70.12;102946.31;5030614;28;20091;-61
2022/01/24 08:18:42;;;;;;;42.53;24.48;;;;;;;2.24;70.18;102942.03;5029915;28;20045;-61
2022/01/24 08:21:08;;;;;;;42.40;25.58;;;;;;;2.28;70.14;102953.31;5031114;28;20050;-61
2022/01/24 08:23:36;;;;;;;43.53;25.17;;;;;;;2.33;70.00;102958.56;5031024;28;20049;-61
2022/01/24 08:26:04;;;;;;;45.25;24.63;;;;;;;2.36;70.03;102958.59;5031107;28;20045;-61
2022/01/24 08:28:31;;;;;;;44.47;23.70;;;;;;;2.38;69.89;102947.41;5030480;28;20508;-61
2022/01/24 08:30:58;;;;;;;41.55;24.15;;;;;;;2.39;69.75;102956.94;5030344;28;20054;-59
2022/01/24 08:33:25;;;;;;;44.97;25.13;;;;;;;2.39;69.92;102953.47;5029568;28;20498;-61
2022/01/24 08:35:53;;;;;;;46.97;25.70;;;;;;;2.44;69.80;102949.22;5030647;28;20413;-62
2022/01/24 08:38:21;;;;;;;41.45;24.42;;;;;;;2.43;69.73;102950.94;5030079;28;20049;-61
2022/01/24 08:40:57;;;;;;;45.00;26.40;;;;;;;2.45;69.84;102948.34;5030256;28;20045;-61
2022/01/24 08:43:38;;;;;;;44.50;24.65;;;;;;;2.50;69.70;102951.00;5025574;28;20049;-61
2022/01/24 08:46:06;;;;;;;49.47;26.42;;;;;;;2.46;69.50;102947.50;5029677;28;20045;-61
2022/01/24 08:48:35;;;;;;;44.25;25.45;;;;;;;2.45;69.62;102949.25;5029463;28;20053;-61
2022/01/24 08:51:06;;;;;;;50.72;25.70;;;;;;;2.43;69.62;102948.34;5028548;28;20402;-61
2022/01/24 08:53:35;;;;;;;51.67;26.23;;;;;;;2.45;69.65;102948.34;5030197;28;20049;-61
2022/01/24 08:56:06;;;;;;;50.08;24.50;;;;;;;2.49;69.47;102949.25;5030098;28;20041;-61
2022/01/24 08:58:34;;;;;;;44.42;25.30;;;;;;;2.48;69.46;102950.16;5029910;28;20050;-61
2022/01/24 09:01:01;;;;;;;46.28;26.48;;;;;;;2.39;69.69;102962.13;5029536;28;20129;-62
2022/01/24 09:03:29;;;;;;;48.20;26.42;;;;;;;2.49;69.64;102951.84;5032426;28;20513;-61
2022/01/24 09:05:57;;;;;;;49.90;27.67;;;;;;;2.50;69.22;102957.09;5029844;28;20050;-61
2022/01/24 09:08:24;;;;;;;43.33;25.80;;;;;;;2.57;69.34;102966.66;5020712;28;20115;-61
2022/01/24 09:10:52;;;;;;;53.92;25.80;;;;;;;2.58;69.09;102962.38;5029765;28;20160;-61
2022/01/24 09:13:19;;;;;;;49.45;25.60;;;;;;;2.62;69.24;102969.31;5029910;28;20068;-61
2022/01/24 09:15:46;;;;;;;48.03;27.70;;;;;;;2.61;69.26;102960.66;5029062;28;20045;-61
2022/01/24 09:18:13;;;;;;;67.05;38.42;;;;;;;2.67;69.29;102966.78;5029203;28;20077;-61
2022/01/24 09:20:39;;;;;;;50.30;29.85;;;;;;;2.72;69.11;102970.31;5029325;28;20045;-61
2022/01/24 09:23:08;;;;;;;43.42;26.50;;;;;;;2.78;68.89;102971.25;5028401;28;20068;-61
2022/01/24 09:25:36;;;;;;;47.40;26.58;;;;;;;2.85;69.19;102976.50;5029118;28;20103;-61
2022/01/24 09:28:03;;;;;;;52.80;30.70;;;;;;;2.87;68.78;102975.69;5029391;28;20103;-61
2022/01/24 09:30:30;;;;;;;50.05;28.55;;;;;;;2.87;68.61;102972.19;5029188;28;20045;-61
2022/01/24 09:32:56;;;;;;;46.15;25.70;;;;;;;2.87;68.73;102974.78;5029140;28;20042;-61
2022/01/24 09:35:23;;;;;;;59.80;31.52;;;;;;;2.84;68.74;102974.75;5028791;28;20057;-61
2022/01/24 09:37:50;;;;;;;50.45;28.85;;;;;;;2.86;68.95;102979.13;5028635;28;20053;-61
2022/01/24 09:40:17;;;;;;;46.20;25.45;;;;;;;2.86;68.79;102986.91;5029598;28;20049;-61
2022/01/24 09:42:45;;;;;;;42.60;24.77;;;;;;;2.94;68.81;102982.66;5027879;28;20042;-61
2022/01/24 09:45:18;;;;;;;42.40;24.73;;;;;;;3.05;68.58;102987.13;5028643;28;20049;-61
2022/01/24 09:47:45;;;;;;;43.55;25.27;;;;;;;3.03;68.45;102984.47;5028695;28;20091;-61
2022/01/24 09:50:14;;;;;;;43.60;23.63;;;;;;;3.02;68.39;102977.59;5029087;28;20057;-61
2022/01/24 09:52:44;;;;;;;47.67;26.60;;;;;;;2.90;68.97;102975.69;5029095;28;20045;-61
2022/01/24 09:55:12;;;;;;;41.28;24.63;;;;;;;3.05;68.53;102982.78;5029142;28;20052;-61
2022/01/24 09:57:41;;;;;;;39.55;24.33;;;;;;;3.07;68.50;102975.91;5027320;28;20111;-60
2022/01/24 10:00:12;;;;;;;112.72;58.55;;;;;;;3.09;68.32;102981.97;5028571;28;20049;-61
2022/01/24 10:02:39;;;;;;;313.77;114.10;;;;;;;3.08;68.43;102985.41;5028573;28;20049;-60
2022/01/24 10:05:21;;;;;;;94.63;47.25;;;;;;;3.17;68.08;102989.81;5028526;28;20061;-60
2022/01/24 10:07:58;;;;;;;80.90;44.33;;;;;;;3.22;68.35;102989.88;5027812;28;20390;-60
2022/01/24 10:10:48;;;;;;;43.80;26.40;;;;;;;3.17;68.38;102994.16;5029667;28;20057;-60
2022/01/24 10:19:03;;;;;;;;;;;;;;;3.40;67.67;102987.47;5028583;28;20048;-60
2022/01/24 10:21:56;;;;;;;76.68;40.00;;;;;;;3.56;67.26;102982.44;5028244;28;20025;-60
2022/01/24 10:24:41;;;;;;;92.75;45.53;;;;;;;3.56;67.22;102969.44;5028244;28;20046;-60
2022/01/24 10:27:08;;;;;;;87.25;47.47;;;;;;;3.52;67.77;102972.88;5027824;28;20425;-60
2022/01/24 10:29:49;;;;;;;87.07;46.25;;;;;;;3.65;67.25;102977.31;5028082;28;20088;-59
2022/01/24 10:32:46;;;;;;;67.63;38.28;;;;;;;3.73;67.11;102979.97;5027503;28;20041;-60
2022/01/24 10:35:44;;;;;;;56.30;31.35;;;;;;;3.75;67.32;102973.94;5028202;28;20041;-60
2022/01/24 10:38:31;;;;;;;57.90;35.90;;;;;;;3.76;67.06;102974.81;5022182;28;20057;-61
2022/01/24 10:43:47;;;;;;;88.78;47.38;;;;;;;3.70;67.55;102961.78;5027497;28;20049;-60
2022/01/24 10:46:26;;;;;;;57.20;33.13;;;;;;;3.79;67.59;102961.84;5027523;28;20041;-60
2022/01/24 10:49:04;;;;;;;55.97;33.33;;;;;;;3.60;67.95;102958.22;5026096;28;20072;-66
2022/01/24 10:51:38;;;;;;;48.80;29.48;;;;;;;3.66;67.97;102957.44;5028552;28;20101;-61
2022/01/24 10:54:04;;;;;;;52.88;33.22;;;;;;;3.61;68.15;102954.78;5028412;28;20058;-61
2022/01/24 10:56:38;;;;;;;57.35;34.65;;;;;;;3.56;68.53;102946.94;5028069;28;20426;-61
2022/01/24 10:59:11;;;;;;;65.28;39.30;;;;;;;3.60;68.73;102945.25;5026270;28;20083;-60
2022/01/24 11:01:40;;;;;;;93.53;49.10;;;;;;;3.72;68.49;102945.34;5027876;28;20064;-60
2022/01/24 11:04:13;;;;;;;25.55;15.07;;;;;;;4.70;66.79;102933.75;5028547;28;20041;-60
2022/01/24 11:06:45;;;;;;;28.27;16.77;;;;;;;5.89;65.47;102923.44;5027542;28;20057;-60
2022/01/24 11:09:22;;;;;;;33.17;19.70;;;;;;;6.73;64.96;102937.97;5027999;28;20087;-60
2022/01/24 11:12:12;;;;;;;33.90;20.98;;;;;;;7.33;64.44;102929.78;5030642;28;20049;-60
2022/01/24 11:14:42;;;;;;;41.97;25.38;;;;;;;7.73;63.86;102932.03;5031751;28;20053;-60
2022/01/24 11:17:12;;;;;;;40.42;25.35;;;;;;;8.02;63.31;102928.25;5031481;28;20190;-59
2022/01/24 11:19:47;;;;;;;40.75;24.25;;;;;;;8.31;62.74;102930.53;5031727;28;20053;-60
2022/01/24 11:22:24;;;;;;;40.45;24.13;;;;;;;8.48;62.25;102930.41;5031096;28;20068;-58
2022/01/24 11:25:06;;;;;;;42.40;24.33;;;;;;;8.58;62.09;102928.53;5030990;28;20046;-58
2022/01/24 11:27:38;;;;;;;37.90;23.92;;;;;;;8.80;61.61;102929.09;5030725;28;20053;-59
2022/01/24 11:30:15;;;;;;;37.20;23.15;;;;;;;9.09;60.94;102933.06;5028003;28;20037;-60
2022/01/24 11:32:47;;;;;;;43.10;24.85;;;;;;;9.19;60.91;102920.66;5028624;28;20057;-59
2022/01/24 11:35:33;;;;;;;37.13;24.15;;;;;;;9.41;60.71;102926.44;5030501;28;20053;-59
2022/01/24 11:38:03;;;;;;;36.75;23.48;;;;;;;9.49;60.33;102926.31;5023161;28;20053;-59
2022/01/24 11:41:00;;;;;;;37.42;21.38;;;;;;;9.63;59.90;102918.22;5031654;28;20042;-59
2022/01/24 11:43:35;;;;;;;;;;;;;;;9.66;59.83;102914.66;5030369;28;20050;-58
2022/01/24 11:46:08;;;;;;;35.55;21.67;;;;;;;9.68;59.70;102918.13;5031327;28;19924;-59
2022/01/24 11:48:37;;;;;;;38.33;23.92;;;;;;;9.83;59.19;102915.22;5044429;28;20119;-59
2022/01/24 11:51:11;;;;;;;40.58;24.98;;;;;;;9.95;58.62;102907.13;5023997;28;20049;-58
2022/01/24 11:53:43;;;;;;;41.63;26.00;;;;;;;10.14;58.03;102904.13;5031777;28;20045;-58
2022/01/24 11:56:28;;;;;;;42.03;25.83;;;;;;;10.34;57.07;102895.88;5037302;28;20049;-57
2022/01/24 11:59:21;;;;;;;36.15;22.27;;;;;;;10.49;56.37;102899.97;5042339;28;20079;-57
2022/01/24 12:01:54;;;;;;;37.85;23.83;;;;;;;10.54;56.31;102913.84;5032048;28;20042;-57
2022/01/24 12:04:52;;;;;;;37.78;24.27;;;;;;;10.69;55.96;102917.03;5030932;28;20053;-57
2022/01/24 12:07:24;;;;;;;39.33;23.35;;;;;;;10.81;55.52;102902.78;5035097;28;20053;-57
2022/01/24 12:09:53;;;;;;;36.65;22.67;;;;;;;10.95;55.08;102905.94;5030492;28;20049;-57
2022/01/24 12:12:38;;;;;;;49.72;31.20;;;;;;;10.19;55.07;102904.91;5030075;28;20175;-60
2022/01/24 12:15:07;;;;;;;52.17;30.50;;;;;;;9.09;57.19;102905.97;5020459;28;20405;-61
2022/01/24 12:17:49;;;;;;;61.40;35.85;;;;;;;8.31;58.27;102907.00;5031072;28;20290;-61
2022/01/24 12:20:31;;;;;;;51.70;32.47;;;;;;;7.82;59.55;102911.06;5024307;28;20046;-60
2022/01/24 12:23:16;;;;;;;65.60;38.03;;;;;;;7.45;60.47;102913.13;5036461;28;20049;-61
2022/01/24 12:26:06;;;;;;;52.40;30.38;;;;;;;7.29;60.77;102915.00;5032907;28;20059;-61
2022/01/24 12:28:41;;;;;;;52.28;31.55;;;;;;;7.17;60.80;102921.16;5030050;28;20049;-61
2022/01/24 12:31:28;;;;;;;52.28;31.90;;;;;;;6.95;61.30;102926.53;5030810;28;20049;-64
2022/01/24 12:33:54;;;;;;;53.13;31.70;;;;;;;6.81;61.72;102924.00;5030891;28;20053;-61
2022/01/24 12:36:39;;;;;;;52.90;31.85;;;;;;;6.75;61.65;102920.56;5030290;28;20084;-60
2022/01/24 12:39:15;;;;;;;54.22;32.22;;;;;;;6.60;62.10;102914.56;5029454;28;20183;-61
2022/01/24 12:41:47;;;;;;;55.40;32.58;;;;;;;6.58;62.23;102918.03;5028599;28;21672;-61
2022/01/24 12:47:08;;;;;;;54.28;32.28;;;;;;;6.38;62.74;102921.59;5029908;28;20094;-61
2022/01/24 12:49:35;;;;;;;59.17;32.10;;;;;;;6.35;62.60;102912.06;5029583;28;20042;-62
2022/01/24 12:52:06;;;;;;;53.17;32.10;;;;;;;6.31;63.10;102917.28;5030464;28;20103;-61
2022/01/24 12:54:35;;;;;;;59.05;32.67;;;;;;;6.29;63.11;102917.28;5029708;28;20045;-61
2022/01/24 12:57:05;;;;;;;62.33;32.92;;;;;;;6.26;63.28;102914.69;5028905;28;20053;-61
2022/01/24 12:59:33;;;;;;;55.65;31.80;;;;;;;6.27;63.39;102913.84;5029901;28;20053;-62
2022/01/24 13:02:02;;;;;;;56.67;33.50;;;;;;;6.26;63.54;102909.50;5031622;28;20045;-60
2022/01/24 13:04:34;;;;;;;55.42;32.72;;;;;;;6.25;63.63;102914.69;5043823;28;20103;-60
2022/01/24 13:07:01;;;;;;;59.17;33.50;;;;;;;6.25;63.57;102912.06;5040509;28;20041;-61
2022/01/24 13:09:28;;;;;;;56.15;33.47;;;;;;;6.20;63.96;102912.13;5042652;28;20045;-60
2022/01/24 13:12:00;;;;;;;60.25;33.13;;;;;;;6.17;64.06;102915.59;5037843;28;20041;-60
2022/01/24 13:14:52;;;;;;;57.17;32.40;;;;;;;6.10;64.29;102916.47;5028831;28;20053;-60
2022/01/24 13:20:49;;;;;;;56.08;32.47;;;;;;;6.08;64.68;102919.97;5031562;28;20053;-61
2022/01/24 13:23:14;;;;;;;59.50;32.08;;;;;;;6.26;64.42;102929.47;5035761;28;20045;-58